createdAt,value
2022-12-04T06:00:25.804Z,33.60
2022-12-04T06:02:52.720Z,38.20
2022-12-04T06:05:19.854Z,40.50
2022-12-04T06:07:46.544Z,37.67
2022-12-04T06:10:13.867Z,32.15
2022-12-04T06:12:40.403Z,32.13
2022-12-04T06:15:07.707Z,35.22
2022-12-04T06:17:34.251Z,36.55
2022-12-04T06:20:03.277Z,36.45
2022-12-04T06:22:33.190Z,31.17
2022-12-04T06:25:00.358Z,32.47
2022-12-04T06:27:28.263Z,29.88
2022-12-04T06:29:56.345Z,29.17
2022-12-04T06:32:23.062Z,35.63
2022-12-04T06:34:52.636Z,29.88
2022-12-04T06:37:20.095Z,34.15
2022-12-04T06:39:47.295Z,26.35
2022-12-04T06:42:13.993Z,30.88
2022-12-04T06:44:41.148Z,35.15
2022-12-04T06:47:08.407Z,31.73
2022-12-04T06:49:36.408Z,28.30
2022-12-04T06:52:03.806Z,28.05
2022-12-04T06:54:31.101Z,30.73
2022-12-04T06:56:57.669Z,26.05
2022-12-04T06:59:24.799Z,26.73
2022-12-04T07:01:51.435Z,29.55
2022-12-04T07:04:18.610Z,27.00
2022-12-04T07:06:45.193Z,29.95
2022-12-04T07:09:16.010Z,22.75
2022-12-04T07:11:43.626Z,27.58
2022-12-04T07:14:11.807Z,29.65
2022-12-04T07:16:41.932Z,28.05
2022-12-04T07:19:11.387Z,28.77
2022-12-04T07:21:38.263Z,29.27
2022-12-04T07:24:06.120Z,29.20
2022-12-04T07:26:32.690Z,25.17
2022-12-04T07:29:00.093Z,24.02
2022-12-04T07:31:29.426Z,31.17
2022-12-04T07:33:58.077Z,28.90
2022-12-04T07:36:25.953Z,31.00
2022-12-04T07:38:56.261Z,26.05
2022-12-04T07:41:23.936Z,31.65
2022-12-04T07:43:50.526Z,28.23
2022-12-04T07:46:23.423Z,26.70
2022-12-04T07:48:50.059Z,31.20
2022-12-04T07:51:22.609Z,29.08
2022-12-04T07:53:50.963Z,30.35
2022-12-04T07:56:17.759Z,30.25
2022-12-04T07:58:45.118Z,28.52
2022-12-04T08:01:15.228Z,29.95
2022-12-04T08:03:48.127Z,30.55
2022-12-04T08:06:18.082Z,31.75
2022-12-04T08:08:45.198Z,32.63
2022-12-04T08:11:16.292Z,30.77
2022-12-04T08:13:43.416Z,30.40
2022-12-04T08:16:12.113Z,29.85
2022-12-04T08:18:39.875Z,26.50
2022-12-04T08:21:13.057Z,30.00
2022-12-04T08:23:40.842Z,25.10
2022-12-04T08:26:09.061Z,31.92
2022-12-04T08:28:36.213Z,28.75
2022-12-04T08:31:05.994Z,33.13
2022-12-04T08:33:33.281Z,26.38
2022-12-04T08:36:00.775Z,31.23
2022-12-04T08:38:27.352Z,39.03
2022-12-04T08:40:54.498Z,38.78
2022-12-04T08:43:22.283Z,33.30
2022-12-04T08:46:00.338Z,31.92
2022-12-04T08:48:27.418Z,30.73
2022-12-04T08:50:55.071Z,38.33
2022-12-04T08:53:22.763Z,35.72
2022-12-04T08:55:51.112Z,36.35
2022-12-04T08:58:18.595Z,36.58
2022-12-04T09:00:46.049Z,40.03
2022-12-04T09:03:15.201Z,42.35
2022-12-04T09:05:42.923Z,39.45
2022-12-04T09:08:09.547Z,45.55
2022-12-04T09:10:37.376Z,40.25
2022-12-04T09:13:03.993Z,42.80
2022-12-04T09:15:31.612Z,38.28
2022-12-04T09:17:58.439Z,42.85
2022-12-04T09:20:25.909Z,35.92
2022-12-04T09:23:03.948Z,40.45
2022-12-04T09:25:32.385Z,45.00
2022-12-04T09:27:58.908Z,41.63
2022-12-04T09:30:26.197Z,38.70
2022-12-04T09:32:53.028Z,43.53
2022-12-04T09:35:20.297Z,43.42
2022-12-04T09:37:46.837Z,40.40
2022-12-04T09:40:37.276Z,44.90
2022-12-04T09:43:44.185Z,42.58
2022-12-04T09:46:18.557Z,45.03
2022-12-04T09:48:48.744Z,46.22
2022-12-04T09:51:20.350Z,46.85
2022-12-04T09:54:00.383Z,50.28
2022-12-04T09:59:10.329Z,55.67
2022-12-04T10:01:54.332Z,55.58
2022-12-04T10:04:21.734Z,48.85
2022-12-04T10:07:14.419Z,53.35
2022-12-04T10:09:59.925Z,47.92
2022-12-04T10:13:06.717Z,60.60
2022-12-04T10:16:01.800Z,48.97
2022-12-04T10:18:52.367Z,59.45
2022-12-04T10:21:42.627Z,52.83
2022-12-04T10:24:38.459Z,49.88
2022-12-04T10:27:19.503Z,49.30
2022-12-04T10:29:50.751Z,51.50
2022-12-04T10:32:22.800Z,57.83
2022-12-04T10:34:54.339Z,54.92
2022-12-04T10:37:22.559Z,53.38
2022-12-04T10:40:02.845Z,63.83
2022-12-04T10:42:38.506Z,56.15
2022-12-04T10:45:07.080Z,61.30
2022-12-04T10:47:34.870Z,55.38
2022-12-04T10:50:06.026Z,52.70
2022-12-04T10:52:32.558Z,51.33
2022-12-04T10:55:01.485Z,58.25
2022-12-04T10:57:40.045Z,56.60
2022-12-04T11:00:27.334Z,66.25
2022-12-04T11:02:56.160Z,56.65
2022-12-04T11:05:33.461Z,64.68
2022-12-04T11:08:03.104Z,62.03
2022-12-04T11:10:32.937Z,62.28
2022-12-04T11:13:06.167Z,55.65
2022-12-04T11:15:44.108Z,58.80
2022-12-04T11:18:19.623Z,58.55
2022-12-04T11:21:01.114Z,66.57
2022-12-04T11:23:32.736Z,64.85
2022-12-04T11:26:05.850Z,59.72
2022-12-04T11:28:42.822Z,58.60
2022-12-04T11:31:16.771Z,63.05
2022-12-04T11:33:47.429Z,60.35
2022-12-04T11:36:36.846Z,67.32
2022-12-04T11:39:19.159Z,61.20
2022-12-04T11:41:46.492Z,56.30
2022-12-04T11:44:35.666Z,61.05
2022-12-04T11:47:05.239Z,54.13
2022-12-04T11:49:33.144Z,56.45
2022-12-04T11:52:03.129Z,58.33
2022-12-04T11:57:22.254Z,54.50
2022-12-04T11:59:57.569Z,61.70
2022-12-04T12:02:44.598Z,59.55
2022-12-04T12:05:20.621Z,59.85
2022-12-04T12:08:26.646Z,53.83
2022-12-04T12:11:02.635Z,59.60
2022-12-04T12:13:53.470Z,57.85
2022-12-04T12:16:50.058Z,64.53
2022-12-04T12:19:39.861Z,67.55
2022-12-04T12:22:31.707Z,63.50
2022-12-04T12:25:16.427Z,59.08
2022-12-04T12:28:02.141Z,62.45
2022-12-04T12:30:40.006Z,52.97
2022-12-04T12:33:09.616Z,56.42
2022-12-04T12:36:07.222Z,59.58
2022-12-04T12:38:48.643Z,62.33
2022-12-04T12:41:31.463Z,55.33
2022-12-04T12:44:04.346Z,60.50
2022-12-04T12:46:55.615Z,60.28
2022-12-04T12:49:29.835Z,53.75
2022-12-04T12:52:13.127Z,59.08
2022-12-04T12:54:39.616Z,56.90
2022-12-04T12:57:17.790Z,59.25
2022-12-04T12:59:50.451Z,59.92
2022-12-04T13:02:39.392Z,61.20
2022-12-04T13:05:10.912Z,63.63
2022-12-04T13:07:40.899Z,57.90
2022-12-04T13:10:18.074Z,61.28
2022-12-04T13:12:47.540Z,56.90
2022-12-04T13:15:20.540Z,55.63
2022-12-04T13:17:51.057Z,55.45
2022-12-04T13:20:25.292Z,62.17
2022-12-04T13:23:11.361Z,57.85
2022-12-04T13:26:22.563Z,58.90
2022-12-04T13:29:02.735Z,55.08
2022-12-04T13:31:46.369Z,61.65
2022-12-04T13:34:32.624Z,54.08
2022-12-04T13:37:15.275Z,56.35
2022-12-04T13:40:09.641Z,53.22
2022-12-04T13:42:37.042Z,65.93
2022-12-04T13:45:10.778Z,53.38
2022-12-04T13:47:38.113Z,51.10
2022-12-04T13:50:19.959Z,53.92
2022-12-04T13:52:47.560Z,59.03
2022-12-04T13:55:32.014Z,61.65
2022-12-04T13:58:11.394Z,56.70
2022-12-04T14:00:42.394Z,51.90
2022-12-04T14:03:26.062Z,53.90
2022-12-04T14:05:53.128Z,57.05
2022-12-04T14:08:20.351Z,53.55
2022-12-04T14:11:01.523Z,59.75
2022-12-04T14:13:43.133Z,58.80
2022-12-04T14:16:21.884Z,52.13
2022-12-04T14:18:52.554Z,62.77
2022-12-04T14:21:19.869Z,59.22
2022-12-04T14:23:47.315Z,53.75
2022-12-04T14:27:10.124Z,52.88
2022-12-04T14:29:28.119Z,55.70
2022-12-04T14:31:58.146Z,53.78
2022-12-04T14:36:58.057Z,52.45
2022-12-04T14:39:44.358Z,53.92
2022-12-04T14:42:18.214Z,59.78
2022-12-04T14:44:46.661Z,59.13
2022-12-04T14:47:44.898Z,58.57
2022-12-04T14:50:26.968Z,57.13
2022-12-04T14:53:12.914Z,53.35
2022-12-04T14:56:05.945Z,59.25
2022-12-04T14:58:38.289Z,62.83
2022-12-04T15:01:18.207Z,66.38
2022-12-04T15:03:47.465Z,49.22
2022-12-04T15:06:22.025Z,51.58
2022-12-04T15:09:14.562Z,50.05
2022-12-04T15:12:14.165Z,55.78
2022-12-04T15:17:13.134Z,55.00
2022-12-04T15:19:40.689Z,50.67
2022-12-04T15:22:25.211Z,50.55
2022-12-04T15:24:53.784Z,50.45
2022-12-04T15:27:30.323Z,54.43
2022-12-04T15:30:01.521Z,59.38
2022-12-04T15:32:31.148Z,51.63
2022-12-04T15:35:05.593Z,58.58
2022-12-04T15:37:34.061Z,53.72
2022-12-04T15:40:06.140Z,51.15
2022-12-04T15:42:33.411Z,52.95
2022-12-04T15:45:21.775Z,53.72
2022-12-04T15:47:48.937Z,53.77
2022-12-04T15:50:15.421Z,53.45
2022-12-04T15:52:58.823Z,46.97
2022-12-04T15:55:28.029Z,50.45
2022-12-04T15:58:21.064Z,52.72
2022-12-04T16:00:55.013Z,47.33
2022-12-04T16:03:24.375Z,49.72
2022-12-04T16:06:03.106Z,54.35
2022-12-04T16:08:40.395Z,51.90
2022-12-04T16:11:24.354Z,46.83
2022-12-04T16:14:05.605Z,46.47
2022-12-04T16:16:32.389Z,44.60
2022-12-04T16:19:11.582Z,49.75
2022-12-04T16:21:38.132Z,51.20
2022-12-04T16:24:06.995Z,49.22
2022-12-04T16:26:34.143Z,49.90
2022-12-04T16:29:01.361Z,49.10
2022-12-04T16:31:28.032Z,47.33
2022-12-04T16:33:55.295Z,57.63
2022-12-04T16:36:21.856Z,49.33
2022-12-04T16:38:50.605Z,48.60
2022-12-04T16:41:19.345Z,46.95
2022-12-04T16:43:53.989Z,44.07
2022-12-04T16:46:22.414Z,39.63
2022-12-04T16:48:49.748Z,46.20
2022-12-04T16:51:19.898Z,50.47
2022-12-04T16:53:47.495Z,48.67
2022-12-04T16:56:14.042Z,47.08
2022-12-04T16:58:41.237Z,40.72
2022-12-04T17:01:25.233Z,43.17
2022-12-04T17:03:52.778Z,47.70
2022-12-04T17:06:19.602Z,48.47
2022-12-04T17:08:46.816Z,40.22
2022-12-04T17:11:15.401Z,48.13
2022-12-04T17:13:43.009Z,41.08
2022-12-04T17:16:14.012Z,42.47
2022-12-04T17:18:43.057Z,47.28
2022-12-04T17:21:12.409Z,47.03
2022-12-04T17:26:10.756Z,43.55
2022-12-04T17:28:38.619Z,47.20
2022-12-04T17:31:13.494Z,43.90
2022-12-04T17:33:40.766Z,43.30
2022-12-04T17:36:12.503Z,40.45
2022-12-04T17:38:41.109Z,41.90
2022-12-04T17:41:10.394Z,41.75
2022-12-04T17:43:37.560Z,47.00
2022-12-04T17:46:12.661Z,41.15
2022-12-04T17:48:40.265Z,43.47
2022-12-04T17:51:12.634Z,39.40
2022-12-04T17:53:40.234Z,44.97
2022-12-04T17:56:10.221Z,47.08
2022-12-04T17:58:37.862Z,44.20
2022-12-04T18:01:07.493Z,50.17
2022-12-04T18:03:35.858Z,40.65
2022-12-04T18:06:21.673Z,40.72
2022-12-04T18:08:50.364Z,48.13
2022-12-04T18:11:22.520Z,41.75
2022-12-04T18:13:54.584Z,40.90
2022-12-04T18:16:21.244Z,37.53
2022-12-04T18:18:48.538Z,41.10
2022-12-04T18:21:15.372Z,43.60
2022-12-04T18:23:46.102Z,39.75
2022-12-04T18:26:16.055Z,42.17
2022-12-04T18:28:44.270Z,35.10
2022-12-04T18:31:11.880Z,35.25
2022-12-04T18:33:40.929Z,41.92
2022-12-04T18:36:11.948Z,39.60
2022-12-04T18:38:39.214Z,40.40
2022-12-04T18:41:07.700Z,46.03
2022-12-04T18:43:36.570Z,38.30
2022-12-04T18:46:07.812Z,36.90
2022-12-04T18:48:36.974Z,38.75
2022-12-04T18:51:17.135Z,36.17
2022-12-04T18:53:44.649Z,37.08
2022-12-04T18:56:12.478Z,37.75
2022-12-04T18:58:39.699Z,38.83
2022-12-04T19:01:12.195Z,37.30
2022-12-04T19:03:39.648Z,36.17
2022-12-04T19:06:07.053Z,34.72
2022-12-04T19:08:37.637Z,38.92
2022-12-04T19:11:11.575Z,38.95
2022-12-04T19:13:38.834Z,38.22
2022-12-04T19:16:13.964Z,42.05
2022-12-04T19:18:42.478Z,40.22
2022-12-04T19:21:09.031Z,38.65
2022-12-04T19:23:36.252Z,42.40
2022-12-04T19:26:04.036Z,42.17
2022-12-04T19:28:31.454Z,38.20
2022-12-04T19:30:58.077Z,39.50
2022-12-04T19:33:25.719Z,40.92
2022-12-04T19:36:04.838Z,37.33
2022-12-04T19:38:33.637Z,38.28
2022-12-04T19:41:04.659Z,32.63
2022-12-04T19:43:32.412Z,40.50
2022-12-04T19:45:58.952Z,36.63
2022-12-04T19:48:25.803Z,35.30
2022-12-04T19:50:52.370Z,30.63
2022-12-04T19:53:19.703Z,34.53
2022-12-04T19:55:46.305Z,34.95
2022-12-04T19:58:13.564Z,35.30
2022-12-04T20:00:40.159Z,35.50
2022-12-04T20:03:07.408Z,37.78
2022-12-04T20:05:36.646Z,37.05
2022-12-04T20:10:30.171Z,36.85
2022-12-04T20:12:57.446Z,33.08
2022-12-04T20:15:24.026Z,33.15
2022-12-04T20:17:53.003Z,29.70
2022-12-04T20:20:19.548Z,38.65
2022-12-04T20:22:46.964Z,33.88
2022-12-04T20:25:13.539Z,31.75
2022-12-04T20:27:40.662Z,33.17
2022-12-04T20:30:07.795Z,31.23
2022-12-04T20:32:34.673Z,31.88
2022-12-04T20:35:01.555Z,31.70
2022-12-04T20:37:28.561Z,29.50
2022-12-04T20:39:55.521Z,32.38
2022-12-04T20:42:22.784Z,29.73
2022-12-04T20:44:49.339Z,32.65
2022-12-04T20:47:17.129Z,33.67
2022-12-04T20:49:43.691Z,29.75
2022-12-04T20:52:11.426Z,30.65
2022-12-04T20:54:41.296Z,32.90
2022-12-04T20:57:09.405Z,32.22
2022-12-04T20:59:36.093Z,36.28
2022-12-04T21:02:03.476Z,31.98
2022-12-04T21:04:30.040Z,36.35
2022-12-04T21:06:57.979Z,36.95
2022-12-04T21:09:25.170Z,36.83
2022-12-04T21:11:54.539Z,32.22
2022-12-04T21:14:43.273Z,37.33
2022-12-04T21:17:14.614Z,33.97
2022-12-04T21:19:41.179Z,33.78
2022-12-04T21:22:08.484Z,33.50
2022-12-04T21:24:39.202Z,35.20
2022-12-04T21:27:08.096Z,34.72
2022-12-04T21:29:38.836Z,34.60
